X  Tanca Dades meteorològiques de l'aviació METAR        LFLY LYON
Temperatura
5°C Temperatura
1°C Rosada
75% Humitat



Vent
13 KM/H
8 MPH
4 M/S
7 NUS



290°
ONO
Condicions actuals

Mostly Clear Majoritàriament clar
Pressió 1036 (hPa) - 30.58 (inHg)
Visibilitat 6 (milla) - 10 (km)
Aeroport
Codi aeroport LFLY

Ubicació: LYON
Distància: 65 (km)

Metar:
METAR LFLY 032030Z AUTO 29007KT CAVOK 05/01 Q1035 NOSIG

Temps: 03-02-2023 21:30 CET